RCSS/TSA METAR and TAF weather

Enter ICAO airport designator
Station Type Date Time Source
RCSS METAR 2020/09/22 06:30 UTC NOAA

RCSS 220630Z 07012KT 040V100 9999 FEW025 BKN250 30/21 Q1010 NOSIG RMK A2983


Station Type Date Time Source
RCSS Decoded METAR 2020/09/22 06:30 UTC NOAA

Sungshan / Taipei, Taiwan (RCSS) 25-04N 121-33E
Sep 22, 2020 - 02:30 AM EDT / 2020.09.22 0630 UTC
Wind: from the ENE (070 degrees) at 14 MPH (12 KT) (direction variable):0
Visibility: greater than 7 mile(s):0
Sky conditions: mostly cloudy
Temperature: 86 F (30 C)
Dew Point: 69 F (21 C)
Relative Humidity: 58%
Pressure (altimeter): 29.83 in. Hg (1010 hPa)
ob: RCSS 220630Z 07012KT 040V100 9999 FEW025 BKN250 30/21 Q1010 NOSIG RMK A2983
cycle: 6

Station Type Date Time Source
RCSS TAF 2020/09/22 06:03 UTC NOAA

TAF RCSS 220500Z 2206/2306 09005KT 9999 FEW015 SCT040
TEMPO 2206/2212 09012KT

Example: see airport list